sensor_id;sensor_type;location;lat;lon;timestamp;P1;durP1;ratioP1;P2;durP2;ratioP2
37221;SDS011;23119;51.842;-2.230;2023-10-31T00:02:13;3.90;;;0.50;;
37221;SDS011;23119;51.842;-2.230;2023-10-31T00:04:45;5.22;;;0.50;;
37221;SDS011;23119;51.842;-2.230;2023-10-31T00:07:11;7.05;;;0.30;;
37221;SDS011;23119;51.842;-2.230;2023-10-31T00:09:37;11.07;;;0.90;;
37221;SDS011;23119;51.842;-2.230;2023-10-31T00:12:10;4.10;;;0.80;;
37221;SDS011;23119;51.842;-2.230;2023-10-31T00:14:39;8.57;;;1.35;;
37221;SDS011;23119;51.842;-2.230;2023-10-31T00:17:08;8.73;;;1.02;;
37221;SDS011;23119;51.842;-2.230;2023-10-31T00:19:36;5.20;;;0.40;;
37221;SDS011;23119;51.842;-2.230;2023-10-31T00:22:05;6.03;;;0.93;;
37221;SDS011;23119;51.842;-2.230;2023-10-31T00:24:37;6.25;;;0.40;;
37221;SDS011;23119;51.842;-2.230;2023-10-31T00:27:12;4.82;;;0.65;;
37221;SDS011;23119;51.842;-2.230;2023-10-31T00:29:39;6.28;;;0.30;;
37221;SDS011;23119;51.842;-2.230;2023-10-31T00:32:08;8.15;;;0.40;;
37221;SDS011;23119;51.842;-2.230;2023-10-31T00:34:38;6.07;;;0.50;;
37221;SDS011;23119;51.842;-2.230;2023-10-31T00:37:04;5.13;;;0.65;;
37221;SDS011;23119;51.842;-2.230;2023-10-31T00:39:30;4.65;;;0.35;;
37221;SDS011;23119;51.842;-2.230;2023-10-31T00:41:56;6.60;;;0.63;;
37221;SDS011;23119;51.842;-2.230;2023-10-31T00:44:27;7.65;;;2.05;;
37221;SDS011;23119;51.842;-2.230;2023-10-31T00:46:53;3.95;;;0.60;;
37221;SDS011;23119;51.842;-2.230;2023-10-31T00:49:22;3.60;;;0.40;;
37221;SDS011;23119;51.842;-2.230;2023-10-31T00:51:48;5.97;;;0.45;;
37221;SDS011;23119;51.842;-2.230;2023-10-31T00:54:17;7.60;;;0.75;;
37221;SDS011;23119;51.842;-2.230;2023-10-31T00:56:48;6.82;;;0.40;;
37221;SDS011;23119;51.842;-2.230;2023-10-31T00:59:14;4.93;;;0.50;;
37221;SDS011;23119;51.842;-2.230;2023-10-31T01:01:40;4.05;;;0.50;;
37221;SDS011;23119;51.842;-2.230;2023-10-31T01:04:09;10.57;;;1.30;;
37221;SDS011;23119;51.842;-2.230;2023-10-31T01:06:42;5.18;;;0.40;;
37221;SDS011;23119;51.842;-2.230;2023-10-31T01:09:12;6.32;;;0.50;;
37221;SDS011;23119;51.842;-2.230;2023-10-31T01:11:40;8.60;;;0.60;;
37221;SDS011;23119;51.842;-2.230;2023-10-31T01:14:08;8.82;;;0.70;;
37221;SDS011;23119;51.842;-2.230;2023-10-31T01:16:37;9.90;;;0.50;;
37221;SDS011;23119;51.842;-2.230;2023-10-31T01:19:02;7.53;;;0.50;;
37221;SDS011;23119;51.842;-2.230;2023-10-31T01:21:29;6.43;;;0.70;;
37221;SDS011;23119;51.842;-2.230;2023-10-31T01:23:58;4.25;;;0.25;;
37221;SDS011;23119;51.842;-2.230;2023-10-31T01:26:25;6.00;;;0.50;;
37221;SDS011;23119;51.842;-2.230;2023-10-31T01:28:57;9.50;;;0.60;;
37221;SDS011;23119;51.842;-2.230;2023-10-31T01:31:23;4.20;;;0.40;;
37221;SDS011;23119;51.842;-2.230;2023-10-31T01:33:52;7.20;;;0.40;;
37221;SDS011;23119;51.842;-2.230;2023-10-31T01:36:17;7.45;;;0.55;;
37221;SDS011;23119;51.842;-2.230;2023-10-31T01:38:46;4.13;;;0.60;;
37221;SDS011;23119;51.842;-2.230;2023-10-31T01:41:15;8.45;;;0.50;;
37221;SDS011;23119;51.842;-2.230;2023-10-31T01:43:41;4.80;;;0.40;;
37221;SDS011;23119;51.842;-2.230;2023-10-31T01:46:07;5.10;;;0.47;;
37221;SDS011;23119;51.842;-2.230;2023-10-31T01:48:33;5.53;;;0.68;;
37221;SDS011;23119;51.842;-2.230;2023-10-31T01:51:00;7.85;;;0.57;;
37221;SDS011;23119;51.842;-2.230;2023-10-31T01:53:36;3.47;;;0.50;;
37221;SDS011;23119;51.842;-2.230;2023-10-31T01:56:05;6.60;;;1.10;;
37221;SDS011;23119;51.842;-2.230;2023-10-31T01:58:36;5.88;;;0.40;;
37221;SDS011;23119;51.842;-2.230;2023-10-31T02:01:02;4.35;;;0.60;;
37221;SDS011;23119;51.842;-2.230;2023-10-31T02:03:34;2.08;;;0.30;;
37221;SDS011;23119;51.842;-2.230;2023-10-31T02:06:03;4.93;;;0.50;;
37221;SDS011;23119;51.842;-2.230;2023-10-31T02:08:30;7.95;;;0.50;;
37221;SDS011;23119;51.842;-2.230;2023-10-31T02:10:56;9.07;;;0.77;;
37221;SDS011;23119;51.842;-2.230;2023-10-31T02:13:26;5.75;;;0.30;;
37221;SDS011;23119;51.842;-2.230;2023-10-31T02:15:55;4.45;;;0.50;;
37221;SDS011;23119;51.842;-2.230;2023-10-31T02:18:22;5.30;;;0.50;;
37221;SDS011;23119;51.842;-2.230;2023-10-31T02:20:53;3.47;;;0.38;;
37221;SDS011;23119;51.842;-2.230;2023-10-31T02:23:18;11.15;;;0.63;;
37221;SDS011;23119;51.842;-2.230;2023-10-31T02:25:48;7.47;;;1.00;;
37221;SDS011;23119;51.842;-2.230;2023-10-31T02:28:14;7.35;;;0.50;;
37221;SDS011;23119;51.842;-2.230;2023-10-31T02:30:43;8.20;;;0.57;;
37221;SDS011;23119;51.842;-2.230;2023-10-31T02:33:11;6.65;;;0.50;;
37221;SDS011;23119;51.842;-2.230;2023-10-31T02:35:39;7.20;;;1.02;;
37221;SDS011;23119;51.842;-2.230;2023-10-31T02:38:05;6.47;;;0.50;;
37221;SDS011;23119;51.842;-2.230;2023-10-31T02:40:31;3.58;;;0.40;;
37221;SDS011;23119;51.842;-2.230;2023-10-31T02:43:00;4.93;;;0.50;;
37221;SDS011;23119;51.842;-2.230;2023-10-31T02:45:31;8.05;;;0.40;;
37221;SDS011;23119;51.842;-2.230;2023-10-31T02:48:00;3.22;;;0.40;;
37221;SDS011;23119;51.842;-2.230;2023-10-31T02:50:28;5.88;;;0.68;;
37221;SDS011;23119;51.842;-2.230;2023-10-31T02:53:04;7.65;;;0.40;;
37221;SDS011;23119;51.842;-2.230;2023-10-31T02:55:39;4.18;;;0.40;;
37221;SDS011;23119;51.842;-2.230;2023-10-31T02:58:11;2.90;;;0.40;;
37221;SDS011;23119;51.842;-2.230;2023-10-31T03:00:37;5.75;;;0.40;;
37221;SDS011;23119;51.842;-2.230;2023-10-31T03:03:06;2.55;;;0.50;;
37221;SDS011;23119;51.842;-2.230;2023-10-31T03:05:40;3.78;;;0.30;;
37221;SDS011;23119;51.842;-2.230;2023-10-31T03:08:07;2.50;;;0.40;;
37221;SDS011;23119;51.842;-2.230;2023-10-31T03:10:37;3.20;;;0.50;;
37221;SDS011;23119;51.842;-2.230;2023-10-31T03:13:04;4.40;;;0.40;;
37221;SDS011;23119;51.842;-2.230;2023-10-31T03:15:30;5.30;;;0.50;;
37221;SDS011;23119;51.842;-2.230;2023-10-31T03:17:57;6.70;;;0.70;;
37221;SDS011;23119;51.842;-2.230;2023-10-31T03:20:31;8.30;;;0.60;;
37221;SDS011;23119;51.842;-2.230;2023-10-31T03:22:57;4.55;;;0.70;;
37221;SDS011;23119;51.842;-2.230;2023-10-31T03:25:24;4.30;;;0.57;;
37221;SDS011;23119;51.842;-2.230;2023-10-31T03:27:53;3.10;;;0.60;;
37221;SDS011;23119;51.842;-2.230;2023-10-31T03:30:22;7.32;;;0.68;;
37221;SDS011;23119;51.842;-2.230;2023-10-31T03:32:53;4.70;;;0.60;;
37221;SDS011;23119;51.842;-2.230;2023-10-31T03:35:21;7.13;;;0.55;;
37221;SDS011;23119;51.842;-2.230;2023-10-31T03:37:50;7.95;;;0.70;;
37221;SDS011;23119;51.842;-2.230;2023-10-31T03:40:15;10.27;;;0.77;;
37221;SDS011;23119;51.842;-2.230;2023-10-31T03:42:49;4.18;;;0.50;;
37221;SDS011;23119;51.842;-2.230;2023-10-31T03:45:14;5.63;;;0.63;;
37221;SDS011;23119;51.842;-2.230;2023-10-31T03:47:40;6.05;;;0.60;;
37221;SDS011;23119;51.842;-2.230;2023-10-31T03:50:26;3.97;;;0.52;;
37221;SDS011;23119;51.842;-2.230;2023-10-31T03:52:52;6.22;;;1.48;;
37221;SDS011;23119;51.842;-2.230;2023-10-31T03:55:21;7.72;;;1.60;;
37221;SDS011;23119;51.842;-2.230;2023-10-31T03:57:46;4.65;;;0.60;;
37221;SDS011;23119;51.842;-2.230;2023-10-31T04:00:15;8.73;;;0.65;;
37221;SDS011;23119;51.842;-2.230;2023-10-31T04:02:44;7.85;;;1.15;;
37221;SDS011;23119;51.842;-2.230;2023-10-31T04:05:09;8.55;;;0.90;;
37221;SDS011;23119;51.842;-2.230;2023-10-31T04:07:35;4.93;;;1.48;;
37221;SDS011;23119;51.842;-2.230;2023-10-31T04:10:01;7.43;;;0.95;;
37221;SDS011;23119;51.842;-2.230;2023-10-31T04:12:28;5.15;;;0.82;;
37221;SDS011;23119;51.842;-2.230;2023-10-31T04:14:55;3.97;;;0.60;;
37221;SDS011;23119;51.842;-2.230;2023-10-31T04:17:30;3.85;;;0.82;;
37221;SDS011;23119;51.842;-2.230;2023-10-31T04:19:56;8.57;;;0.80;;
37221;SDS011;23119;51.842;-2.230;2023-10-31T04:22:24;7.22;;;0.90;;
37221;SDS011;23119;51.842;-2.230;2023-10-31T04:24:50;6.93;;;1.60;;
37221;SDS011;23119;51.842;-2.230;2023-10-31T04:27:18;9.57;;;1.23;;
37221;SDS011;23119;51.842;-2.230;2023-10-31T04:29:47;6.55;;;0.80;;
37221;SDS011;23119;51.842;-2.230;2023-10-31T04:32:15;5.80;;;0.70;;
37221;SDS011;23119;51.842;-2.230;2023-10-31T04:34:48;6.22;;;0.75;;
37221;SDS011;23119;51.842;-2.230;2023-10-31T04:37:14;6.72;;;0.90;;
37221;SDS011;23119;51.842;-2.230;2023-10-31T04:39:39;6.90;;;1.00;;
37221;SDS011;23119;51.842;-2.230;2023-10-31T04:42:05;10.02;;;1.10;;
37221;SDS011;23119;51.842;-2.230;2023-10-31T04:44:35;4.93;;;1.13;;
37221;SDS011;23119;51.842;-2.230;2023-10-31T04:47:01;6.78;;;1.50;;
37221;SDS011;23119;51.842;-2.230;2023-10-31T04:49:34;6.40;;;1.10;;
37221;SDS011;23119;51.842;-2.230;2023-10-31T04:52:00;7.78;;;1.02;;
37221;SDS011;23119;51.842;-2.230;2023-10-31T04:54:29;9.13;;;1.42;;
37221;SDS011;23119;51.842;-2.230;2023-10-31T04:56:55;5.20;;;1.25;;
37221;SDS011;23119;51.842;-2.230;2023-10-31T04:59:20;5.82;;;1.30;;
37221;SDS011;23119;51.842;-2.230;2023-10-31T05:01:49;8.00;;;1.17;;
37221;SDS011;23119;51.842;-2.230;2023-10-31T05:04:19;9.05;;;1.70;;
37221;SDS011;23119;51.842;-2.230;2023-10-31T05:06:44;9.00;;;1.17;;
37221;SDS011;23119;51.842;-2.230;2023-10-31T05:09:13;9.13;;;1.73;;
37221;SDS011;23119;51.842;-2.230;2023-10-31T05:11:50;8.70;;;1.92;;
37221;SDS011;23119;51.842;-2.230;2023-10-31T05:14:15;5.97;;;0.95;;
37221;SDS011;23119;51.842;-2.230;2023-10-31T05:16:44;3.97;;;1.08;;
37221;SDS011;23119;51.842;-2.230;2023-10-31T05:19:15;8.32;;;1.10;;
37221;SDS011;23119;51.842;-2.230;2023-10-31T05:21:44;7.35;;;1.40;;
37221;SDS011;23119;51.842;-2.230;2023-10-31T05:24:18;11.18;;;1.20;;
37221;SDS011;23119;51.842;-2.230;2023-10-31T05:26:47;6.70;;;1.45;;
37221;SDS011;23119;51.842;-2.230;2023-10-31T05:29:15;9.70;;;1.30;;
37221;SDS011;23119;51.842;-2.230;2023-10-31T05:31:46;8.65;;;1.15;;
37221;SDS011;23119;51.842;-2.230;2023-10-31T05:34:12;6.90;;;1.30;;
37221;SDS011;23119;51.842;-2.230;2023-10-31T05:36:38;7.68;;;1.20;;
37221;SDS011;23119;51.842;-2.230;2023-10-31T05:39:04;5.78;;;1.70;;
37221;SDS011;23119;51.842;-2.230;2023-10-31T05:41:29;10.43;;;1.63;;
37221;SDS011;23119;51.842;-2.230;2023-10-31T05:43:56;7.13;;;1.58;;
37221;SDS011;23119;51.842;-2.230;2023-10-31T05:46:25;8.15;;;1.08;;
37221;SDS011;23119;51.842;-2.230;2023-10-31T05:48:53;6.50;;;1.17;;
37221;SDS011;23119;51.842;-2.230;2023-10-31T05:51:19;9.73;;;1.52;;
37221;SDS011;23119;51.842;-2.230;2023-10-31T05:53:48;5.97;;;1.23;;
37221;SDS011;23119;51.842;-2.230;2023-10-31T05:56:14;7.70;;;1.20;;
37221;SDS011;23119;51.842;-2.230;2023-10-31T05:58:43;6.22;;;1.23;;
37221;SDS011;23119;51.842;-2.230;2023-10-31T06:01:09;6.30;;;1.33;;
37221;SDS011;23119;51.842;-2.230;2023-10-31T06:03:42;6.30;;;1.25;;
37221;SDS011;23119;51.842;-2.230;2023-10-31T06:06:09;11.63;;;2.05;;
37221;SDS011;23119;51.842;-2.230;2023-10-31T06:08:36;6.90;;;0.95;;
37221;SDS011;23119;51.842;-2.230;2023-10-31T06:11:07;7.38;;;0.90;;
37221;SDS011;23119;51.842;-2.230;2023-10-31T06:13:34;8.43;;;1.05;;
37221;SDS011;23119;51.842;-2.230;2023-10-31T06:16:00;5.00;;;0.85;;
37221;SDS011;23119;51.842;-2.230;2023-10-31T06:18:26;5.63;;;1.00;;
37221;SDS011;23119;51.842;-2.230;2023-10-31T06:20:52;7.90;;;1.10;;
37221;SDS011;23119;51.842;-2.230;2023-10-31T06:23:21;9.98;;;1.23;;
37221;SDS011;23119;51.842;-2.230;2023-10-31T06:25:49;7.30;;;0.70;;
37221;SDS011;23119;51.842;-2.230;2023-10-31T06:28:18;5.60;;;0.77;;
37221;SDS011;23119;51.842;-2.230;2023-10-31T06:30:45;8.65;;;1.15;;
37221;SDS011;23119;51.842;-2.230;2023-10-31T06:33:16;7.70;;;0.90;;
37221;SDS011;23119;51.842;-2.230;2023-10-31T06:35:42;8.52;;;1.45;;
37221;SDS011;23119;51.842;-2.230;2023-10-31T06:38:07;5.97;;;0.90;;
37221;SDS011;23119;51.842;-2.230;2023-10-31T06:40:36;4.43;;;0.80;;
37221;SDS011;23119;51.842;-2.230;2023-10-31T06:43:07;7.53;;;1.00;;
37221;SDS011;23119;51.842;-2.230;2023-10-31T06:45:32;4.93;;;0.82;;
37221;SDS011;23119;51.842;-2.230;2023-10-31T06:48:01;7.32;;;1.00;;
37221;SDS011;23119;51.842;-2.230;2023-10-31T06:50:32;4.15;;;0.90;;
37221;SDS011;23119;51.842;-2.230;2023-10-31T06:53:00;8.68;;;1.00;;
37221;SDS011;23119;51.842;-2.230;2023-10-31T06:55:26;4.45;;;0.90;;
37221;SDS011;23119;51.842;-2.230;2023-10-31T06:57:52;4.40;;;0.75;;
37221;SDS011;23119;51.842;-2.230;2023-10-31T07:00:20;9.23;;;0.88;;
37221;SDS011;23119;51.842;-2.230;2023-10-31T07:02:45;7.45;;;1.30;;
37221;SDS011;23119;51.842;-2.230;2023-10-31T07:05:14;6.05;;;0.70;;
37221;SDS011;23119;51.842;-2.230;2023-10-31T07:07:41;4.60;;;0.65;;
37221;SDS011;23119;51.842;-2.230;2023-10-31T07:10:09;5.30;;;0.68;;
37221;SDS011;23119;51.842;-2.230;2023-10-31T07:12:37;4.20;;;0.47;;
37221;SDS011;23119;51.842;-2.230;2023-10-31T07:15:05;5.35;;;0.70;;
37221;SDS011;23119;51.842;-2.230;2023-10-31T07:17:34;4.68;;;0.85;;
37221;SDS011;23119;51.842;-2.230;2023-10-31T07:20:04;4.88;;;0.80;;
37221;SDS011;23119;51.842;-2.230;2023-10-31T07:22:30;4.45;;;0.65;;
37221;SDS011;23119;51.842;-2.230;2023-10-31T07:24:57;6.30;;;0.80;;
37221;SDS011;23119;51.842;-2.230;2023-10-31T07:27:24;6.57;;;0.70;;
37221;SDS011;23119;51.842;-2.230;2023-10-31T07:29:53;7.35;;;0.50;;
37221;SDS011;23119;51.842;-2.230;2023-10-31T07:32:18;4.82;;;0.50;;
37221;SDS011;23119;51.842;-2.230;2023-10-31T07:34:44;6.68;;;1.00;;
37221;SDS011;23119;51.842;-2.230;2023-10-31T07:37:15;9.82;;;0.90;;
37221;SDS011;23119;51.842;-2.230;2023-10-31T07:39:43;4.68;;;0.70;;
37221;SDS011;23119;51.842;-2.230;2023-10-31T07:42:14;3.40;;;0.50;;
37221;SDS011;23119;51.842;-2.230;2023-10-31T07:44:42;7.35;;;0.60;;
37221;SDS011;23119;51.842;-2.230;2023-10-31T07:47:10;2.78;;;0.68;;
37221;SDS011;23119;51.842;-2.230;2023-10-31T07:49:39;4.47;;;0.57;;
37221;SDS011;23119;51.842;-2.230;2023-10-31T07:52:07;5.43;;;0.60;;
37221;SDS011;23119;51.842;-2.230;2023-10-31T07:54:38;7.07;;;0.50;;
37221;SDS011;23119;51.842;-2.230;2023-10-31T07:57:05;4.85;;;0.32;;
37221;SDS011;23119;51.842;-2.230;2023-10-31T07:59:34;3.40;;;0.40;;
37221;SDS011;23119;51.842;-2.230;2023-10-31T08:02:00;3.92;;;0.40;;
37221;SDS011;23119;51.842;-2.230;2023-10-31T08:04:26;3.35;;;0.63;;
37221;SDS011;23119;51.842;-2.230;2023-10-31T08:06:53;6.10;;;0.30;;
37221;SDS011;23119;51.842;-2.230;2023-10-31T08:09:19;4.22;;;0.40;;
37221;SDS011;23119;51.842;-2.230;2023-10-31T08:11:44;5.18;;;0.30;;
37221;SDS011;23119;51.842;-2.230;2023-10-31T08:14:13;2.92;;;0.40;;
37221;SDS011;23119;51.842;-2.230;2023-10-31T08:16:40;2.25;;;0.30;;
37221;SDS011;23119;51.842;-2.230;2023-10-31T08:19:06;2.92;;;0.30;;
37221;SDS011;23119;51.842;-2.230;2023-10-31T08:21:35;2.75;;;0.30;;
37221;SDS011;23119;51.842;-2.230;2023-10-31T08:24:04;3.97;;;0.40;;
37221;SDS011;23119;51.842;-2.230;2023-10-31T08:26:35;2.28;;;0.30;;
37221;SDS011;23119;51.842;-2.230;2023-10-31T08:29:00;2.28;;;0.30;;
37221;SDS011;23119;51.842;-2.230;2023-10-31T08:31:28;6.55;;;0.40;;
37221;SDS011;23119;51.842;-2.230;2023-10-31T08:33:54;5.68;;;1.25;;
37221;SDS011;23119;51.842;-2.230;2023-10-31T08:36:25;2.20;;;0.30;;
37221;SDS011;23119;51.842;-2.230;2023-10-31T08:38:50;5.05;;;0.30;;
37221;SDS011;23119;51.842;-2.230;2023-10-31T08:41:25;3.50;;;0.40;;
37221;SDS011;23119;51.842;-2.230;2023-10-31T08:43:51;3.65;;;0.43;;
37221;SDS011;23119;51.842;-2.230;2023-10-31T08:46:19;3.92;;;0.40;;
37221;SDS011;23119;51.842;-2.230;2023-10-31T08:48:47;9.90;;;1.30;;
37221;SDS011;23119;51.842;-2.230;2023-10-31T08:51:13;2.60;;;0.50;;
37221;SDS011;23119;51.842;-2.230;2023-10-31T08:53:38;2.75;;;0.40;;
37221;SDS011;23119;51.842;-2.230;2023-10-31T08:56:04;3.67;;;0.38;;
37221;SDS011;23119;51.842;-2.230;2023-10-31T08:58:32;2.50;;;0.45;;
37221;SDS011;23119;51.842;-2.230;2023-10-31T09:01:00;3.05;;;0.47;;
37221;SDS011;23119;51.842;-2.230;2023-10-31T09:03:29;1.90;;;0.20;;
37221;SDS011;23119;51.842;-2.230;2023-10-31T09:05:57;2.35;;;0.32;;
37221;SDS011;23119;51.842;-2.230;2023-10-31T09:08:22;3.58;;;0.70;;
37221;SDS011;23119;51.842;-2.230;2023-10-31T09:10:53;4.20;;;0.40;;
37221;SDS011;23119;51.842;-2.230;2023-10-31T09:13:22;7.97;;;0.60;;
37221;SDS011;23119;51.842;-2.230;2023-10-31T09:15:47;5.63;;;0.47;;
37221;SDS011;23119;51.842;-2.230;2023-10-31T09:18:14;3.10;;;0.30;;
37221;SDS011;23119;51.842;-2.230;2023-10-31T09:20:40;4.75;;;0.30;;
37221;SDS011;23119;51.842;-2.230;2023-10-31T09:23:09;4.07;;;0.45;;
37221;SDS011;23119;51.842;-2.230;2023-10-31T09:25:37;3.17;;;0.50;;
37221;SDS011;23119;51.842;-2.230;2023-10-31T09:28:03;3.00;;;0.40;;
37221;SDS011;23119;51.842;-2.230;2023-10-31T09:30:29;4.38;;;0.32;;
37221;SDS011;23119;51.842;-2.230;2023-10-31T09:33:02;5.03;;;0.47;;
37221;SDS011;23119;51.842;-2.230;2023-10-31T09:35:33;7.22;;;0.45;;
37221;SDS011;23119;51.842;-2.230;2023-10-31T09:37:58;4.97;;;0.50;;
37221;SDS011;23119;51.842;-2.230;2023-10-31T09:40:29;6.82;;;0.82;;
37221;SDS011;23119;51.842;-2.230;2023-10-31T09:42:58;7.53;;;1.17;;
37221;SDS011;23119;51.842;-2.230;2023-10-31T09:45:24;1.90;;;0.30;;
37221;SDS011;23119;51.842;-2.230;2023-10-31T09:47:52;4.10;;;0.43;;
37221;SDS011;23119;51.842;-2.230;2023-10-31T09:50:19;4.45;;;0.70;;
37221;SDS011;23119;51.842;-2.230;2023-10-31T09:52:52;6.53;;;0.50;;
37221;SDS011;23119;51.842;-2.230;2023-10-31T09:55:21;3.55;;;0.47;;
37221;SDS011;23119;51.842;-2.230;2023-10-31T09:57:47;4.05;;;0.40;;
37221;SDS011;23119;51.842;-2.230;2023-10-31T10:00:18;2.25;;;0.35;;
37221;SDS011;23119;51.842;-2.230;2023-10-31T10:02:51;3.95;;;0.40;;
37221;SDS011;23119;51.842;-2.230;2023-10-31T10:05:20;2.53;;;0.30;;
37221;SDS011;23119;51.842;-2.230;2023-10-31T10:07:50;1.50;;;0.35;;
37221;SDS011;23119;51.842;-2.230;2023-10-31T10:10:15;3.22;;;0.30;;
37221;SDS011;23119;51.842;-2.230;2023-10-31T10:12:42;3.20;;;0.20;;
37221;SDS011;23119;51.842;-2.230;2023-10-31T10:15:11;2.95;;;0.32;;
37221;SDS011;23119;51.842;-2.230;2023-10-31T10:17:37;5.45;;;0.43;;
37221;SDS011;23119;51.842;-2.230;2023-10-31T10:20:13;3.63;;;0.57;;
37221;SDS011;23119;51.842;-2.230;2023-10-31T10:22:39;2.33;;;0.20;;
37221;SDS011;23119;51.842;-2.230;2023-10-31T10:25:10;1.70;;;0.32;;
37221;SDS011;23119;51.842;-2.230;2023-10-31T10:27:43;4.95;;;0.40;;
37221;SDS011;23119;51.842;-2.230;2023-10-31T10:30:09;3.58;;;0.30;;
37221;SDS011;23119;51.842;-2.230;2023-10-31T10:32:36;4.40;;;0.38;;
37221;SDS011;23119;51.842;-2.230;2023-10-31T10:37:37;2.40;;;0.63;;
37221;SDS011;23119;51.842;-2.230;2023-10-31T10:40:05;2.65;;;0.45;;
37221;SDS011;23119;51.842;-2.230;2023-10-31T10:42:49;3.97;;;0.70;;
37221;SDS011;23119;51.842;-2.230;2023-10-31T10:45:22;3.05;;;0.50;;
37221;SDS011;23119;51.842;-2.230;2023-10-31T10:47:49;2.00;;;0.60;;
37221;SDS011;23119;51.842;-2.230;2023-10-31T10:50:24;3.22;;;0.80;;
37221;SDS011;23119;51.842;-2.230;2023-10-31T10:55:44;3.20;;;0.60;;
37221;SDS011;23119;51.842;-2.230;2023-10-31T10:58:32;4.22;;;0.60;;
37221;SDS011;23119;51.842;-2.230;2023-10-31T11:01:04;4.25;;;0.55;;
37221;SDS011;23119;51.842;-2.230;2023-10-31T11:03:34;2.90;;;0.50;;
37221;SDS011;23119;51.842;-2.230;2023-10-31T11:06:04;5.70;;;0.50;;
37221;SDS011;23119;51.842;-2.230;2023-10-31T11:08:31;4.85;;;0.50;;
37221;SDS011;23119;51.842;-2.230;2023-10-31T11:11:00;2.05;;;0.30;;
37221;SDS011;23119;51.842;-2.230;2023-10-31T11:13:26;1.85;;;0.20;;
37221;SDS011;23119;51.842;-2.230;2023-10-31T11:15:53;2.55;;;0.30;;
37221;SDS011;23119;51.842;-2.230;2023-10-31T11:18:27;1.95;;;0.30;;
37221;SDS011;23119;51.842;-2.230;2023-10-31T11:20:53;2.08;;;0.32;;
37221;SDS011;23119;51.842;-2.230;2023-10-31T11:23:21;2.00;;;0.20;;
37221;SDS011;23119;51.842;-2.230;2023-10-31T11:25:50;3.08;;;0.30;;
37221;SDS011;23119;51.842;-2.230;2023-10-31T11:28:19;1.92;;;0.22;;
37221;SDS011;23119;51.842;-2.230;2023-10-31T11:30:48;3.63;;;0.22;;
37221;SDS011;23119;51.842;-2.230;2023-10-31T11:33:15;2.95;;;0.30;;
37221;SDS011;23119;51.842;-2.230;2023-10-31T11:35:44;3.83;;;0.30;;
37221;SDS011;23119;51.842;-2.230;2023-10-31T11:38:30;2.25;;;0.30;;
37221;SDS011;23119;51.842;-2.230;2023-10-31T11:41:01;1.25;;;0.40;;
37221;SDS011;23119;51.842;-2.230;2023-10-31T11:46:26;4.50;;;0.40;;
37221;SDS011;23119;51.842;-2.230;2023-10-31T11:48:54;3.95;;;1.00;;
37221;SDS011;23119;51.842;-2.230;2023-10-31T11:51:29;3.95;;;0.50;;
37221;SDS011;23119;51.842;-2.230;2023-10-31T11:53:55;1.77;;;0.45;;
37221;SDS011;23119;51.842;-2.230;2023-10-31T11:56:27;1.52;;;0.40;;
37221;SDS011;23119;51.842;-2.230;2023-10-31T11:59:00;3.97;;;0.47;;
37221;SDS011;23119;51.842;-2.230;2023-10-31T12:01:31;5.22;;;0.50;;
37221;SDS011;23119;51.842;-2.230;2023-10-31T12:04:11;6.53;;;0.70;;
37221;SDS011;23119;51.842;-2.230;2023-10-31T12:06:56;3.60;;;0.60;;
37221;SDS011;23119;51.842;-2.230;2023-10-31T12:09:23;6.88;;;0.63;;
37221;SDS011;23119;51.842;-2.230;2023-10-31T12:11:49;4.32;;;0.70;;
37221;SDS011;23119;51.842;-2.230;2023-10-31T12:14:18;5.90;;;0.60;;
37221;SDS011;23119;51.842;-2.230;2023-10-31T12:16:48;3.83;;;0.77;;
37221;SDS011;23119;51.842;-2.230;2023-10-31T12:19:17;4.82;;;0.73;;
37221;SDS011;23119;51.842;-2.230;2023-10-31T12:21:49;3.50;;;0.70;;
37221;SDS011;23119;51.842;-2.230;2023-10-31T12:24:15;4.68;;;0.50;;
37221;SDS011;23119;51.842;-2.230;2023-10-31T12:26:42;2.13;;;0.50;;
37221;SDS011;23119;51.842;-2.230;2023-10-31T12:29:12;5.00;;;0.50;;
37221;SDS011;23119;51.842;-2.230;2023-10-31T12:34:10;3.30;;;0.45;;
37221;SDS011;23119;51.842;-2.230;2023-10-31T12:36:36;3.42;;;0.63;;
37221;SDS011;23119;51.842;-2.230;2023-10-31T12:39:07;2.67;;;0.20;;
37221;SDS011;23119;51.842;-2.230;2023-10-31T12:41:37;3.33;;;0.75;;
37221;SDS011;23119;51.842;-2.230;2023-10-31T12:44:07;1.58;;;0.20;;
37221;SDS011;23119;51.842;-2.230;2023-10-31T12:46:38;1.02;;;0.20;;
37221;SDS011;23119;51.842;-2.230;2023-10-31T12:49:11;1.88;;;0.10;;
37221;SDS011;23119;51.842;-2.230;2023-10-31T12:52:00;4.57;;;0.28;;
37221;SDS011;23119;51.842;-2.230;2023-10-31T12:54:32;3.40;;;0.20;;
37221;SDS011;23119;51.842;-2.230;2023-10-31T12:57:11;1.05;;;0.28;;
37221;SDS011;23119;51.842;-2.230;2023-10-31T12:59:37;1.67;;;0.03;;
37221;SDS011;23119;51.842;-2.230;2023-10-31T13:02:06;3.80;;;2.15;;
37221;SDS011;23119;51.842;-2.230;2023-10-31T13:04:35;1.02;;;0.10;;
37221;SDS011;23119;51.842;-2.230;2023-10-31T13:07:05;1.95;;;0.10;;
37221;SDS011;23119;51.842;-2.230;2023-10-31T13:09:33;1.27;;;0.10;;
37221;SDS011;23119;51.842;-2.230;2023-10-31T13:12:04;0.50;;;0.10;;
37221;SDS011;23119;51.842;-2.230;2023-10-31T13:14:30;1.27;;;0.08;;
37221;SDS011;23119;51.842;-2.230;2023-10-31T13:16:56;1.90;;;0.10;;
37221;SDS011;23119;51.842;-2.230;2023-10-31T13:19:28;0.00;;;0.00;;
37221;SDS011;23119;51.842;-2.230;2023-10-31T13:21:57;1.02;;;0.10;;
37221;SDS011;23119;51.842;-2.230;2023-10-31T13:24:25;0.55;;;0.00;;
37221;SDS011;23119;51.842;-2.230;2023-10-31T13:26:53;0.50;;;0.00;;
37221;SDS011;23119;51.842;-2.230;2023-10-31T13:29:22;0.52;;;0.05;;
37221;SDS011;23119;51.842;-2.230;2023-10-31T13:31:50;1.10;;;0.00;;
37221;SDS011;23119;51.842;-2.230;2023-10-31T13:34:18;0.17;;;0.08;;
37221;SDS011;23119;51.842;-2.230;2023-10-31T13:36:44;1.88;;;0.10;;
37221;SDS011;23119;51.842;-2.230;2023-10-31T13:39:12;0.75;;;0.05;;
37221;SDS011;23119;51.842;-2.230;2023-10-31T13:41:40;0.77;;;0.10;;
37221;SDS011;23119;51.842;-2.230;2023-10-31T13:44:09;11.07;;;0.60;;
37221;SDS011;23119;51.842;-2.230;2023-10-31T13:46:34;0.20;;;0.00;;
37221;SDS011;23119;51.842;-2.230;2023-10-31T13:49:03;1.65;;;0.10;;
37221;SDS011;23119;51.842;-2.230;2023-10-31T13:51:37;1.30;;;0.22;;
37221;SDS011;23119;51.842;-2.230;2023-10-31T13:54:03;0.52;;;0.10;;
37221;SDS011;23119;51.842;-2.230;2023-10-31T13:56:29;0.17;;;0.00;;
37221;SDS011;23119;51.842;-2.230;2023-10-31T13:58:55;2.65;;;0.20;;
37221;SDS011;23119;51.842;-2.230;2023-10-31T14:01:25;1.23;;;0.05;;
37221;SDS011;23119;51.842;-2.230;2023-10-31T14:03:51;0.95;;;0.00;;
37221;SDS011;23119;51.842;-2.230;2023-10-31T14:06:16;0.57;;;0.08;;
37221;SDS011;23119;51.842;-2.230;2023-10-31T14:08:55;1.10;;;0.10;;
37221;SDS011;23119;51.842;-2.230;2023-10-31T14:11:25;4.00;;;0.10;;
37221;SDS011;23119;51.842;-2.230;2023-10-31T14:13:54;4.40;;;0.10;;
37221;SDS011;23119;51.842;-2.230;2023-10-31T14:16:28;2.00;;;0.15;;
37221;SDS011;23119;51.842;-2.230;2023-10-31T14:18:55;3.08;;;0.10;;
37221;SDS011;23119;51.842;-2.230;2023-10-31T14:21:23;2.92;;;0.22;;
37221;SDS011;23119;51.842;-2.230;2023-10-31T14:23:50;4.63;;;0.10;;
37221;SDS011;23119;51.842;-2.230;2023-10-31T14:26:21;2.90;;;0.25;;
37221;SDS011;23119;51.842;-2.230;2023-10-31T14:28:50;4.20;;;0.20;;
37221;SDS011;23119;51.842;-2.230;2023-10-31T14:31:17;3.08;;;0.10;;
37221;SDS011;23119;51.842;-2.230;2023-10-31T14:33:43;2.50;;;0.20;;
37221;SDS011;23119;51.842;-2.230;2023-10-31T14:36:14;1.88;;;0.10;;
37221;SDS011;23119;51.842;-2.230;2023-10-31T14:38:43;4.15;;;0.20;;
37221;SDS011;23119;51.842;-2.230;2023-10-31T14:41:09;1.48;;;0.20;;
37221;SDS011;23119;51.842;-2.230;2023-10-31T14:43:36;4.55;;;0.20;;
37221;SDS011;23119;51.842;-2.230;2023-10-31T14:46:02;3.70;;;0.20;;
37221;SDS011;23119;51.842;-2.230;2023-10-31T14:48:29;3.25;;;0.55;;
37221;SDS011;23119;51.842;-2.230;2023-10-31T14:50:55;5.20;;;1.65;;
37221;SDS011;23119;51.842;-2.230;2023-10-31T14:53:22;3.72;;;0.20;;